岡山グライダークラブ活動状況掲示板

岡山グライダークラブ
岡山市浦安南町639-1 岡南飛行場
 使用機:シャイベ式 SF25C型 ファルケ   JA2330
      ヴァレンティン式17E型 タイフーン  JA2342
 練習日:毎日曜日  クラブルーム:電話 086-265-1810
この掲示板は岡山グライダークラブの活動状況をお知らせする掲示板です。
!!!この掲示板は投稿規制をしています。!!!
クラブ関連各種情報は 岡山グライダークラブクラブルーム      を       .
  ブリーフイング情報は  岡山グライダークラブブリーフィングルーム  をご覧下さい。 .
※写真はクリックすると拡大して見ることが出来ます。
岡南飛行場へのアクセス等は 岡南飛行場管理事務所 をご覧ください。
クラブの ホームページ ができました。

!!!お待たせしました。新型コロナ感染症の感染が下火になったことから見学者等の受入を再開します。!!!
  注)なお、見学等の際には一般的な感染対策(マスク、ソーシャルディスタンス、黙食等)を順守してください。

 
01月22日
by OGC at 2023/1/23(月) 00:17:40 No.20230123001603  削除コメント
640 x 480 x 80,486バイト
No.1

01月22日
本日の参加者
  会員      20名
  その他     00名


@本日の様子






METAR
RJOB 220000Z 11002KT 9999 FEW025 SCT/// 01/M04 Q1027
RJOT 220000Z 14005KT 9999 FEW025 03/M03 Q1027
RJOA 220000Z 00000KT 9999 FEW025 BKN/// 02/M04 Q1026
TAF
RJOB 212307Z 2200/2306 08005KT 9999 FEW035
     BECMG 2215/2218 3000 -SNRA BR FEW003 BKN008 BKN015
     TEMPO 2218/2303 1500 -SNRA BR FEW001 BKN005 BKN008
RJOT 212306Z 2200/2306 03005KT 9999 FEW030
     TEMPO 2218/2300 3000 -RASN BR FEW003 SCT005 BKN008
     TEMPO 2300/2306 4000 -RA BR FEW003 SCT005 BKN008
RJOA 212306Z 2200/2306 12004KT 9999 FEW025 SCT045
     BECMG 2212/2215 3000 -SNRA BR FEW003 BKN008 BKN015
     TEMPO 2215/2300 1500 -SNRA BR FEW001 BKN005 BKN008
     BECMG 2300/2303 4000 -RASN BR FEW003 SCT008 BKN015


本日の天候は曇り、凸凹も少なく安定した飛行ができ、訓練しやすい天候
でした。

また、本日、総会を開催し会計報告や機体購入計画、搭乗費削減プラン等
の承認を得ることができました。



解散    17:30

1番機  12:30離陸 撤収機  17:10着陸 

SF25C JA2330 ファルケ     10Flt.3h15min  
17E   JA2342 タイフーン    00Flt.0h00min
合計                    10Flt.3h15min


    << 戻る || ホームページ || 最新の掲示板へ